This is the latest recevied weather packets stored in our database for station/object W4SNA-3. If no packets are shown the sender has not sent any weather packets the latest 10 day(s).
| Time | Temp. | Humidity | Pressure | Rain* | Wind** | Luminosity | Snow |
|---|---|---|---|---|---|---|---|
| 1788114734 | 26.11° C | 79% | 1023.1 hPa | 0 mm | - | - | - |
| 1788114431 | 26.11° C | 81% | 1023.1 hPa | 0 mm | - | - | - |
| 1788114132 | 25.56° C | 78% | 1023.4 hPa | 0 mm | - | - | - |
| 1788113830 | 26.11° C | 77% | 1023.5 hPa | 0 mm | - | - | - |
| 1788113530 | 26.11° C | 75% | 1023.6 hPa | 0 mm | - | - | - |
| 1788113230 | 26.67° C | 78% | 1023.5 hPa | 0 mm | - | - | - |
| 1788112645 | 26.11° C | 77% | 1023.7 hPa | 0 mm | - | - | - |
| 1788112343 | 26.11° C | 78% | 1023.7 hPa | 0 mm | - | - | - |
| 1788112043 | 26.11° C | 77% | 1024 hPa | 0 mm | - | - | - |
| 1788111742 | 26.11° C | 77% | 1024.1 hPa | 0 mm | - | - | - |
| 1788111444 | 26.11° C | 79% | 1024 hPa | 0 mm | - | - | - |
| 1788111145 | 25.56° C | 79% | 1024.2 hPa | 0 mm | - | - | - |
| 1788110842 | 25.56° C | 81% | 1024.2 hPa | 0 mm | - | - | - |
| 1788110543 | 25.56° C | 78% | 1024.3 hPa | 0 mm | - | - | - |
| 1788110243 | 26.11° C | 79% | 1024.3 hPa | 0 mm | - | - | - |
| 1788109942 | 25.56° C | 79% | 1024.4 hPa | 0 mm | - | - | - |
| 1788109643 | 25.56° C | 76% | 1024.6 hPa | 0 mm | - | - | - |
| 1788109342 | 26.11° C | 75% | 1024.7 hPa | 0 mm | - | - | - |
| 1788109045 | 26.11° C | 80% | 1024.7 hPa | 0 mm | - | - | - |
| 1788108743 | 25.56° C | 80% | 1024.7 hPa | 0 mm | - | - | - |
| 1788108444 | 25.56° C | 76% | 1024.8 hPa | 0 mm | - | - | - |
| 1788108145 | 25.56° C | 77% | 1024.9 hPa | 0 mm | - | - | - |
| 1788107842 | 26.11° C | 75% | 1024.9 hPa | 0 mm | - | - | - |
| 1788107542 | 25.56° C | 78% | 1024.9 hPa | 0 mm | - | - | - |
| 1788107242 | 25.56° C | 77% | 1024.9 hPa | 0 mm | - | - | - |
* Rain latest hour (hover to see other rain measurements)
** Current wind speed in m/s (hover to see current wind gust speed)